RJFKRJOT

Guest
Details From RJFK - KAGOSHIMA
To RJOT - TAKAMATSU
Flight Number -
Tags generated
Created
Modified
Stats Distance 229 nm / 425 km
Max Altitude 29,400 ft / 8,961 m
Waypoints 7
Social Downloads 0
Likes 0
Share VATSIM

Download

Looking for another format? Having issues loading an existing format? Contact us
Advertisement - Login to hide

Notes

Basic altitude profile: - Ascent Rate: 2500ft/min - Ascent Speed: 250kts - Cruise Altitude: 35000ft - Cruise Speed: 420kts - Descent Rate: 1500ft/min - Descent Speed: 250kts Options: - Use NATs: yes - Use PACOTS: yes - Use low airways: yes - Use high airways: yes

Route

RJFK KROMA V54 TAE V17 KTE RJOT

ID Type Via Altitude Latitude Longitude Leg Dist Tot Dist Heading (true) Name
O RJFK APT - 0 ft / 0 m 31.80340˚ 130.71941˚ - 0 nm - KAGOSHIMA
KROMA FIX - 13,800 ft / 4,206 m 32.41037˚ 131.10709˚ 41 nm 41 nm 28° / 29° -
SOBOH FIX V54 (AWY-LO) 23,900 ft / 7,285 m 32.81422˚ 131.40261˚ 28 nm 69 nm 32° / 32° -
ITIKO FIX V54 (AWY-HI) 29,400 ft / 8,961 m 33.05781˚ 131.58314˚ 17 nm 87 nm 32° / 32° -
TAE VOR V54 (AWY-HI) 27,900 ft / 8,504 m 33.22034˚ 131.70325˚ 11 nm 98 nm 32° / 32° OITA VOR-DME
KTE VOR V17 (AWY-LO) 15,000 ft / 4,572 m 34.21250˚ 134.02259˚ 130 nm 228 nm 62° / 63° KAGAWA VOR-DME
O RJOT APT - 0 ft / 0 m 34.21405˚ 134.01577˚ 0 nm 229 nm 285° / 285° TAKAMATSU

Altitude Profile

Advertisement - Login to hide

Weather


0- 5 10 15 20 25 30 35+ Temperature / ° C

Clouds and Precipitation
Forecast for 2017-12-13 00:00 UTC. Updated an hour ago

Ground ~20,000 ft ~40,000 ft Winds

RJFK

Details ICAO RJFK (KOJ)
Name KAGOSHIMA
Region Japan
Timezone Asia/Tokyo (UTC+9.0)
Stats Elevation 906 ft / 276 m (AMSL)
Location 31.803400° 130.719405°
Runways 1
Magnetic Variation 6.911° W

METAR

Not found

TAF

TAF RJFK 121705Z 1218/1400 33008KT 9999 FEW025

Decode

Departure Runways

ID Width Length Bearing (true) Bearing (mag) Surface Threshold Offset Overrun Length
16 150 ft / 46 m 9,861 ft / 3,006 m 150.11° 157.02° Asphalt 0 ft / 0 m 200 ft / 61 m
34 150 ft / 46 m 9,861 ft / 3,006 m 330.11° 337.02° Asphalt 0 ft / 0 m 200 ft / 61 m

RJOT

Details ICAO RJOT (TAK)
Name TAKAMATSU
Region Japan
Timezone Asia/Tokyo (UTC+9.0)
Stats Elevation 607 ft / 185 m (AMSL)
Location 34.214053° 134.015772°
Runways 1
Magnetic Variation 7.584° W

METAR

Not found

TAF

TAF RJOT 121707Z 1218/1400 27010KT 9999 FEW025 BKN045

Decode

Destination Runways

ID Width Length Bearing (true) Bearing (mag) Surface Threshold Offset Overrun Length
08 200 ft / 61 m 8,189 ft / 2,496 m 72.81° 80.39° Asphalt 0 ft / 0 m 210 ft / 64 m
26 200 ft / 61 m 8,189 ft / 2,496 m 252.83° 260.41° Asphalt 0 ft / 0 m 210 ft / 64 m

Approach Navaids

Runway Type Ident Frequency Range Bearing (true) Bearing (mag) Slope Elevation
26 Localiser IKT 109.70 MHz 18 nm / 33 km 252.81° 260.40° - 607 ft / 185 m (AMSL)
26 Glidescope IKT 109.70 MHz 10 nm / 19 km 252.82° 260.41° 3.00° 53 ft / 16 m (AMSL)
26 DME IKT 109.70 MHz 18 nm / 33 km - - - 606 ft / 185 m (AMSL)